createdAt,value
2023-02-19T00:00:27.450Z,99.99
2023-02-19T00:01:27.396Z,99.99
2023-02-19T00:02:27.374Z,99.99
2023-02-19T00:03:27.389Z,99.99
2023-02-19T00:04:27.359Z,99.99
2023-02-19T00:05:27.331Z,99.99
2023-02-19T00:06:27.348Z,99.99
2023-02-19T00:07:27.288Z,99.99
2023-02-19T00:08:27.309Z,99.99
2023-02-19T00:09:27.326Z,99.99
2023-02-19T00:10:29.166Z,99.99
2023-02-19T00:11:27.266Z,99.99
2023-02-19T00:12:27.273Z,99.99
2023-02-19T00:13:27.236Z,99.99
2023-02-19T00:14:27.263Z,99.99
2023-02-19T00:15:27.286Z,99.99
2023-02-19T00:16:27.195Z,99.99
2023-02-19T00:17:27.177Z,99.99
2023-02-19T00:18:27.205Z,99.99
2023-02-19T00:19:27.181Z,99.99
2023-02-19T00:20:27.186Z,99.99
2023-02-19T00:21:27.144Z,99.99
2023-02-19T00:22:27.130Z,99.99
2023-02-19T00:23:27.129Z,99.99
2023-02-19T00:24:27.119Z,99.99
2023-02-19T00:25:27.113Z,99.99
2023-02-19T00:26:27.103Z,99.99
2023-02-19T00:27:27.059Z,99.99
2023-02-19T00:28:27.102Z,99.99
2023-02-19T00:29:27.084Z,99.99
2023-02-19T00:30:27.072Z,99.99
2023-02-19T00:31:27.125Z,99.99
2023-02-19T00:32:27.025Z,99.99
2023-02-19T00:33:27.021Z,99.99
2023-02-19T00:34:27.012Z,99.99
2023-02-19T00:35:26.987Z,99.99
2023-02-19T00:36:26.971Z,99.99
2023-02-19T00:37:26.959Z,99.99
2023-02-19T00:38:26.983Z,99.99
2023-02-19T00:39:26.983Z,99.99
2023-02-19T00:40:27.942Z,99.99
2023-02-19T00:41:26.956Z,99.99
2023-02-19T00:42:26.908Z,99.99
2023-02-19T00:43:26.895Z,99.99
2023-02-19T00:44:26.923Z,99.99
2023-02-19T00:45:26.877Z,99.99
2023-02-19T00:46:26.967Z,99.99
2023-02-19T00:47:26.833Z,99.99
2023-02-19T00:48:26.850Z,99.99
2023-02-19T00:49:26.860Z,99.99
2023-02-19T00:50:26.845Z,99.99
2023-02-19T00:51:26.798Z,99.99
2023-02-19T00:52:26.786Z,99.99
2023-02-19T00:53:26.786Z,99.99
2023-02-19T00:54:26.795Z,99.99
2023-02-19T00:55:26.873Z,99.99
2023-02-19T00:56:26.757Z,99.99
2023-02-19T00:57:26.732Z,99.99
2023-02-19T00:58:26.746Z,99.99
2023-02-19T00:59:26.714Z,99.99
2023-02-19T01:00:26.717Z,99.99
2023-02-19T01:01:26.779Z,99.99
2023-02-19T01:02:26.686Z,99.99
2023-02-19T01:03:26.679Z,99.99
2023-02-19T01:04:34.492Z,99.99
2023-02-19T01:05:35.146Z,99.99
2023-02-19T01:06:33.963Z,99.99
2023-02-19T01:07:36.413Z,99.99
2023-02-19T01:08:26.597Z,99.99
2023-02-19T01:09:26.624Z,99.99
2023-02-19T01:10:26.581Z,99.99
2023-02-19T01:11:26.562Z,99.99
2023-02-19T01:12:26.560Z,99.99
2023-02-19T01:13:26.540Z,99.99
2023-02-19T01:14:26.561Z,99.99
2023-02-19T01:15:26.529Z,99.99
2023-02-19T01:16:26.608Z,99.99
2023-02-19T01:17:26.499Z,99.99
2023-02-19T01:18:26.497Z,99.99
2023-02-19T01:19:26.493Z,99.99
2023-02-19T01:20:26.497Z,99.99
2023-02-19T01:21:26.480Z,99.99
2023-02-19T01:22:26.448Z,99.99
2023-02-19T01:23:26.440Z,99.99
2023-02-19T01:24:26.447Z,99.99
2023-02-19T01:25:26.649Z,99.99
2023-02-19T01:26:26.746Z,99.99
2023-02-19T01:27:26.411Z,99.99
2023-02-19T01:28:26.392Z,99.99
2023-02-19T01:29:26.412Z,99.99
2023-02-19T01:30:28.173Z,99.99
2023-02-19T01:31:26.417Z,99.99
2023-02-19T01:32:26.314Z,99.99
2023-02-19T01:33:26.333Z,99.99
2023-02-19T01:34:26.332Z,99.99
2023-02-19T01:35:26.341Z,99.99
2023-02-19T01:36:26.269Z,99.99
2023-02-19T01:37:26.373Z,99.99
2023-02-19T01:38:26.266Z,99.99
2023-02-19T01:39:26.491Z,99.99
2023-02-19T01:40:26.276Z,99.99
2023-02-19T01:41:26.493Z,99.99
2023-02-19T01:42:26.264Z,99.99
2023-02-19T01:43:26.264Z,99.99
2023-02-19T01:44:26.203Z,99.99
2023-02-19T01:45:26.455Z,99.99
2023-02-19T01:46:26.465Z,99.99
2023-02-19T01:47:28.008Z,99.99
2023-02-19T01:48:26.147Z,99.99
2023-02-19T01:49:26.178Z,99.99
2023-02-19T01:50:26.115Z,99.99
2023-02-19T01:51:26.163Z,99.99
2023-02-19T01:52:26.115Z,99.99
2023-02-19T01:53:26.089Z,99.99
2023-02-19T01:54:26.077Z,99.99
2023-02-19T01:55:26.076Z,99.99
2023-02-19T01:56:26.061Z,99.99
2023-02-19T01:57:26.041Z,99.99
2023-02-19T01:58:26.057Z,99.99
2023-02-19T01:59:26.048Z,99.99
2023-02-19T02:00:26.010Z,99.99
2023-02-19T02:01:26.023Z,99.99
2023-02-19T02:02:26.002Z,99.99
2023-02-19T02:03:25.970Z,99.99
2023-02-19T02:04:25.988Z,99.99
2023-02-19T02:05:25.959Z,99.99
2023-02-19T02:06:25.947Z,99.99
2023-02-19T02:07:25.938Z,99.99
2023-02-19T02:08:25.918Z,99.99
2023-02-19T02:09:25.910Z,99.99
2023-02-19T02:10:25.897Z,99.99
2023-02-19T02:11:25.908Z,99.99
2023-02-19T02:12:25.869Z,99.99
2023-02-19T02:13:25.858Z,99.99
2023-02-19T02:14:25.880Z,99.99
2023-02-19T02:15:25.839Z,99.99
2023-02-19T02:16:25.923Z,99.99
2023-02-19T02:17:25.843Z,99.99
2023-02-19T02:18:25.823Z,99.99
2023-02-19T02:19:25.797Z,99.99
2023-02-19T02:20:25.784Z,99.99
2023-02-19T02:21:25.785Z,99.99
2023-02-19T02:22:25.757Z,99.99
2023-02-19T02:23:25.743Z,99.99
2023-02-19T02:24:25.746Z,99.99
2023-02-19T02:25:25.736Z,99.99
2023-02-19T02:26:25.733Z,99.99
2023-02-19T02:27:25.720Z,99.99
2023-02-19T02:28:26.025Z,99.99
2023-02-19T02:29:25.687Z,99.99
2023-02-19T02:30:25.726Z,99.99
2023-02-19T02:31:25.771Z,99.99
2023-02-19T02:32:25.645Z,99.99
2023-02-19T02:33:25.645Z,99.99
2023-02-19T02:34:25.646Z,99.99
2023-02-19T02:35:25.617Z,99.99
2023-02-19T02:36:25.588Z,99.99
2023-02-19T02:37:32.624Z,99.99
2023-02-19T02:38:32.611Z,99.99
2023-02-19T02:39:25.544Z,99.99
2023-02-19T02:40:33.561Z,99.99
2023-02-19T02:41:32.550Z,99.99
2023-02-19T02:42:32.551Z,99.99
2023-02-19T02:43:32.565Z,99.99
2023-02-19T02:44:32.524Z,99.99
2023-02-19T02:45:33.055Z,99.99
2023-02-19T02:46:25.501Z,99.99
2023-02-19T02:47:25.482Z,99.99
2023-02-19T02:48:25.484Z,99.99
2023-02-19T02:49:25.462Z,99.99
2023-02-19T02:50:25.463Z,99.99
2023-02-19T02:51:25.423Z,99.99
2023-02-19T02:52:25.455Z,99.99
2023-02-19T02:53:25.416Z,99.99
2023-02-19T02:54:25.416Z,99.99
2023-02-19T02:55:25.394Z,99.99
2023-02-19T02:56:25.380Z,99.99
2023-02-19T02:57:25.385Z,99.99
2023-02-19T02:58:25.369Z,99.99
2023-02-19T02:59:26.229Z,99.99
2023-02-19T03:00:25.324Z,99.99
2023-02-19T03:01:25.397Z,99.99
2023-02-19T03:02:25.434Z,99.99
2023-02-19T03:03:25.296Z,99.99
2023-02-19T03:04:25.284Z,99.99
2023-02-19T03:05:25.299Z,99.99
2023-02-19T03:06:25.327Z,99.99
2023-02-19T03:07:25.288Z,99.86
2023-02-19T03:08:25.240Z,99.96
2023-02-19T03:09:25.244Z,99.99
2023-02-19T03:10:25.223Z,99.99
2023-02-19T03:11:25.218Z,99.99
2023-02-19T03:12:25.195Z,99.99
2023-02-19T03:13:25.183Z,99.86
2023-02-19T03:14:25.192Z,99.96
2023-02-19T03:15:25.170Z,99.86
2023-02-19T03:16:25.457Z,99.15
2023-02-19T03:17:25.149Z,99.35
2023-02-19T03:18:25.133Z,98.69
2023-02-19T03:19:25.136Z,98.79
2023-02-19T03:20:25.140Z,98.69
2023-02-19T03:21:25.095Z,97.97
2023-02-19T03:22:25.116Z,97.66
2023-02-19T03:23:25.068Z,97.46
2023-02-19T03:24:25.086Z,97.36
2023-02-19T03:25:25.045Z,97.56
2023-02-19T03:26:25.037Z,97.46
2023-02-19T03:27:25.024Z,96.95
2023-02-19T03:28:25.032Z,97.05
2023-02-19T03:29:25.014Z,97.46
2023-02-19T03:30:25.004Z,97.97
2023-02-19T03:31:25.158Z,98.18
2023-02-19T03:32:24.970Z,97.87
2023-02-19T03:33:24.963Z,98.58
2023-02-19T03:34:26.193Z,99.20
2023-02-19T03:35:24.940Z,99.45
2023-02-19T03:36:24.926Z,99.76
2023-02-19T03:37:24.916Z,99.66
2023-02-19T03:38:24.889Z,99.99
2023-02-19T03:39:24.919Z,99.99
2023-02-19T03:40:24.883Z,99.99
2023-02-19T03:41:24.862Z,99.99
2023-02-19T03:42:24.864Z,99.99
2023-02-19T03:43:24.858Z,99.76
2023-02-19T03:44:24.875Z,99.96
2023-02-19T03:45:24.815Z,99.99
2023-02-19T03:46:24.822Z,99.86
2023-02-19T03:47:24.785Z,99.86
2023-02-19T03:48:24.809Z,99.86
2023-02-19T03:49:24.802Z,99.99
2023-02-19T03:50:24.775Z,98.94
2023-02-19T03:51:24.769Z,99.04
2023-02-19T03:52:24.763Z,99.45
2023-02-19T03:53:24.748Z,99.76
2023-02-19T03:54:24.708Z,99.76
2023-02-19T03:55:24.719Z,99.15
2023-02-19T03:56:24.690Z,99.25
2023-02-19T03:57:24.721Z,99.66
2023-02-19T03:58:24.673Z,99.86
2023-02-19T03:59:24.664Z,99.76
2023-02-19T04:00:24.654Z,99.96
2023-02-19T04:01:24.681Z,99.35
2023-02-19T04:02:24.644Z,99.35
2023-02-19T04:03:24.644Z,99.55
2023-02-19T04:04:24.637Z,99.45
2023-02-19T04:05:24.594Z,99.35
2023-02-19T04:06:24.602Z,99.55
2023-02-19T04:07:24.577Z,99.76
2023-02-19T04:08:24.594Z,99.91
2023-02-19T04:09:24.555Z,99.99
2023-02-19T04:10:24.541Z,99.86
2023-02-19T04:11:24.538Z,99.15
2023-02-19T04:12:24.545Z,98.74
2023-02-19T04:13:24.530Z,98.74
2023-02-19T04:14:32.511Z,98.02
2023-02-19T04:15:24.494Z,96.95
2023-02-19T04:16:24.503Z,96.95
2023-02-19T04:17:32.481Z,96.95
2023-02-19T04:18:24.469Z,96.54
2023-02-19T04:19:24.459Z,96.84
2023-02-19T04:20:24.439Z,96.74
2023-02-19T04:21:24.424Z,96.74
2023-02-19T04:22:24.414Z,97.36
2023-02-19T04:23:24.399Z,97.20
2023-02-19T04:24:24.402Z,96.64
2023-02-19T04:25:24.371Z,96.64
2023-02-19T04:26:24.382Z,97.30
2023-02-19T04:27:24.360Z,97.40
2023-02-19T04:28:24.364Z,97.50
2023-02-19T04:29:24.326Z,97.09
2023-02-19T04:30:24.385Z,96.89
2023-02-19T04:31:24.380Z,96.13
2023-02-19T04:32:24.337Z,96.54
2023-02-19T04:33:24.305Z,97.20
2023-02-19T04:34:24.283Z,97.20
2023-02-19T04:35:24.286Z,96.38
2023-02-19T04:36:24.240Z,96.48
2023-02-19T04:37:24.238Z,96.58
2023-02-19T04:38:24.230Z,96.69
2023-02-19T04:39:24.206Z,95.72
2023-02-19T04:40:24.245Z,95.51
2023-02-19T04:41:24.187Z,95.41
2023-02-19T04:42:24.176Z,96.13
2023-02-19T04:43:24.185Z,96.07
2023-02-19T04:44:24.148Z,96.17
2023-02-19T04:45:24.148Z,96.38
2023-02-19T04:46:24.177Z,96.79
2023-02-19T04:47:24.151Z,96.99
2023-02-19T04:48:24.104Z,97.30
2023-02-19T04:49:24.107Z,97.71
2023-02-19T04:50:24.084Z,98.02
2023-02-19T04:51:24.084Z,98.02
2023-02-19T04:52:24.068Z,97.50
2023-02-19T04:53:24.046Z,96.79
2023-02-19T04:54:24.056Z,96.28
2023-02-19T04:55:24.048Z,96.58
2023-02-19T04:56:24.017Z,96.58
2023-02-19T04:57:24.004Z,96.38
2023-02-19T04:58:23.988Z,95.97
2023-02-19T04:59:23.993Z,95.76
2023-02-19T05:00:23.987Z,95.87
2023-02-19T05:01:24.003Z,95.36
2023-02-19T05:02:23.945Z,94.80
2023-02-19T05:03:23.932Z,95.00
2023-02-19T05:04:24.004Z,95.41
2023-02-19T05:05:23.908Z,95.76
2023-02-19T05:06:23.908Z,95.46
2023-02-19T05:07:23.887Z,95.66
2023-02-19T05:08:23.901Z,95.87
2023-02-19T05:09:23.880Z,95.46
2023-02-19T05:10:23.861Z,94.95
2023-02-19T05:11:23.849Z,94.84
2023-02-19T05:12:23.850Z,95.15
2023-02-19T05:13:23.826Z,95.36
2023-02-19T05:14:23.831Z,95.15
2023-02-19T05:15:23.798Z,95.25
2023-02-19T05:16:23.778Z,95.46
2023-02-19T05:17:23.782Z,94.74
2023-02-19T05:18:23.770Z,94.64
2023-02-19T05:19:23.771Z,94.74
2023-02-19T05:20:23.739Z,94.74
2023-02-19T05:21:23.734Z,95.05
2023-02-19T05:22:23.715Z,94.23
2023-02-19T05:23:23.713Z,94.95
2023-02-19T05:24:23.713Z,95.15
2023-02-19T05:25:23.688Z,95.87
2023-02-19T05:26:23.681Z,96.17
2023-02-19T05:27:23.660Z,96.28
2023-02-19T05:28:23.660Z,96.42
2023-02-19T05:29:23.669Z,96.73
2023-02-19T05:30:23.685Z,97.24
2023-02-19T05:31:23.796Z,97.24
2023-02-19T05:32:23.629Z,97.55
2023-02-19T05:33:23.598Z,97.65
2023-02-19T05:34:23.618Z,97.65
2023-02-19T05:35:23.596Z,97.45
2023-02-19T05:36:23.574Z,97.65
2023-02-19T05:37:23.556Z,97.86
2023-02-19T05:38:23.561Z,97.45
2023-02-19T05:39:23.541Z,97.34
2023-02-19T05:40:23.514Z,97.65
2023-02-19T05:41:23.510Z,97.45
2023-02-19T05:42:23.495Z,97.65
2023-02-19T05:43:23.491Z,97.14
2023-02-19T05:44:23.511Z,95.81
2023-02-19T05:45:23.450Z,95.66
2023-02-19T05:46:23.525Z,95.81
2023-02-19T05:47:30.474Z,96.42
2023-02-19T05:48:30.439Z,96.12
2023-02-19T05:49:31.956Z,96.42
2023-02-19T05:50:30.424Z,96.01
2023-02-19T05:51:31.431Z,96.32
2023-02-19T05:52:31.682Z,96.01
2023-02-19T05:53:30.388Z,94.74
2023-02-19T05:54:23.379Z,94.84
2023-02-19T05:55:23.623Z,94.74
2023-02-19T05:56:23.329Z,94.33
2023-02-19T05:57:23.320Z,94.43
2023-02-19T05:58:23.323Z,94.54
2023-02-19T05:59:23.322Z,94.12
2023-02-19T06:00:23.300Z,94.02
2023-02-19T06:01:23.322Z,94.02
2023-02-19T06:02:24.055Z,94.02
2023-02-19T06:03:23.254Z,94.43
2023-02-19T06:04:23.281Z,93.71
2023-02-19T06:05:23.235Z,94.23
2023-02-19T06:06:23.219Z,94.43
2023-02-19T06:07:23.224Z,94.95
2023-02-19T06:08:23.216Z,95.87
2023-02-19T06:09:23.213Z,96.12
2023-02-19T06:10:23.182Z,96.42
2023-02-19T06:11:23.170Z,96.83
2023-02-19T06:12:23.183Z,97.14
2023-02-19T06:13:23.503Z,97.24
2023-02-19T06:14:23.158Z,97.14
2023-02-19T06:15:23.862Z,96.83
2023-02-19T06:16:23.159Z,96.83
2023-02-19T06:17:23.091Z,97.04
2023-02-19T06:18:23.094Z,97.24
2023-02-19T06:19:23.123Z,97.55
2023-02-19T06:20:26.028Z,97.65
2023-02-19T06:21:23.061Z,97.86
2023-02-19T06:22:23.049Z,98.21
2023-02-19T06:23:23.029Z,98.21
2023-02-19T06:24:23.039Z,97.55
2023-02-19T06:25:23.166Z,98.11
2023-02-19T06:26:23.038Z,98.21
2023-02-19T06:27:23.008Z,98.32
2023-02-19T06:28:22.991Z,98.21
2023-02-19T06:29:22.957Z,97.60
2023-02-19T06:30:22.992Z,97.29
2023-02-19T06:31:23.071Z,97.29
2023-02-19T06:32:23.065Z,97.29
2023-02-19T06:33:22.942Z,96.94
2023-02-19T06:34:22.947Z,97.39
2023-02-19T06:35:22.909Z,96.83
2023-02-19T06:36:22.898Z,96.53
2023-02-19T06:37:22.887Z,96.01
2023-02-19T06:38:22.882Z,96.22
2023-02-19T06:39:22.851Z,96.01
2023-02-19T06:40:22.875Z,95.91
2023-02-19T06:41:22.825Z,96.01
2023-02-19T06:42:22.828Z,95.50
2023-02-19T06:43:23.171Z,95.50
2023-02-19T06:44:22.855Z,95.70
2023-02-19T06:45:22.761Z,95.81
2023-02-19T06:46:22.828Z,95.91
2023-02-19T06:47:25.343Z,95.91
2023-02-19T06:48:22.791Z,95.61
2023-02-19T06:49:22.772Z,95.61
2023-02-19T06:50:23.164Z,94.89
2023-02-19T06:51:22.741Z,95.09
2023-02-19T06:52:22.753Z,94.89
2023-02-19T06:53:22.724Z,95.09
2023-02-19T06:54:22.708Z,95.09
2023-02-19T06:55:23.143Z,94.58
2023-02-19T06:56:22.958Z,94.68
2023-02-19T06:57:22.661Z,94.27
2023-02-19T06:58:22.635Z,94.27
2023-02-19T06:59:22.628Z,94.58
2023-02-19T07:00:22.652Z,94.27
2023-02-19T07:01:22.610Z,94.27
2023-02-19T07:02:22.596Z,94.27
2023-02-19T07:03:22.600Z,94.37
2023-02-19T07:04:22.659Z,94.27
2023-02-19T07:05:23.324Z,94.37
2023-02-19T07:06:22.553Z,93.86
2023-02-19T07:07:22.548Z,94.07
2023-02-19T07:08:22.528Z,94.58
2023-02-19T07:09:22.552Z,94.78
2023-02-19T07:10:22.672Z,94.07
2023-02-19T07:11:22.483Z,94.17
2023-02-19T07:12:22.496Z,94.07
2023-02-19T07:13:22.515Z,94.27
2023-02-19T07:14:22.479Z,94.37
2023-02-19T07:15:22.451Z,94.58
2023-02-19T07:16:22.764Z,94.58
2023-02-19T07:17:22.471Z,93.96
2023-02-19T07:18:22.409Z,93.86
2023-02-19T07:19:22.423Z,93.41
2023-02-19T07:20:22.383Z,93.71
2023-02-19T07:21:22.384Z,94.02
2023-02-19T07:22:22.373Z,94.23
2023-02-19T07:23:25.110Z,94.17
2023-02-19T07:24:29.372Z,94.27
2023-02-19T07:25:29.387Z,94.27
2023-02-19T07:26:29.857Z,94.37
2023-02-19T07:27:22.291Z,94.48
2023-02-19T07:28:29.316Z,93.96
2023-02-19T07:29:22.272Z,94.07
2023-02-19T07:30:22.310Z,94.48
2023-02-19T07:31:22.391Z,94.58
2023-02-19T07:32:22.266Z,94.58
2023-02-19T07:33:22.235Z,94.78
2023-02-19T07:34:22.237Z,94.89
2023-02-19T07:35:22.236Z,94.89
2023-02-19T07:36:22.540Z,94.99
2023-02-19T07:37:22.199Z,94.78
2023-02-19T07:38:22.247Z,95.09
2023-02-19T07:39:22.194Z,95.09
2023-02-19T07:40:22.226Z,95.29
2023-02-19T07:41:22.184Z,95.29
2023-02-19T07:42:22.161Z,95.09
2023-02-19T07:43:29.849Z,94.37
2023-02-19T07:44:22.129Z,94.17
2023-02-19T07:45:22.386Z,94.89
2023-02-19T07:46:22.106Z,95.50
2023-02-19T07:47:22.121Z,96.12
2023-02-19T07:48:22.097Z,96.42
2023-02-19T07:49:22.114Z,96.67
2023-02-19T07:50:22.803Z,97.08
2023-02-19T07:51:22.133Z,97.08
2023-02-19T07:52:22.071Z,97.49
2023-02-19T07:53:22.063Z,97.29
2023-02-19T07:54:22.071Z,97.80
2023-02-19T07:55:22.140Z,97.70
2023-02-19T07:56:22.000Z,97.70
2023-02-19T07:57:22.007Z,96.98
2023-02-19T07:58:21.988Z,96.57
2023-02-19T07:59:22.041Z,96.47
2023-02-19T08:00:21.959Z,96.57
2023-02-19T08:01:23.961Z,96.67
2023-02-19T08:02:22.247Z,96.78
2023-02-19T08:03:24.886Z,96.67
2023-02-19T08:04:21.943Z,96.57
2023-02-19T08:05:21.918Z,96.88
2023-02-19T08:06:23.726Z,97.29
2023-02-19T08:07:21.930Z,97.49
2023-02-19T08:08:29.759Z,97.39
2023-02-19T08:09:21.838Z,97.80
2023-02-19T08:10:24.620Z,97.39
2023-02-19T08:11:21.836Z,97.19
2023-02-19T08:12:22.162Z,97.39
2023-02-19T08:13:22.160Z,96.88
2023-02-19T08:14:21.818Z,96.67
2023-02-19T08:15:22.533Z,96.78
2023-02-19T08:16:33.108Z,96.37
2023-02-19T08:17:22.772Z,96.67
2023-02-19T08:18:22.736Z,96.88
2023-02-19T08:19:21.739Z,96.88
2023-02-19T08:20:21.747Z,96.98
2023-02-19T08:21:22.107Z,97.13
2023-02-19T08:22:21.698Z,97.54
2023-02-19T08:23:21.700Z,97.44
2023-02-19T08:24:21.695Z,97.33
2023-02-19T08:25:21.650Z,97.23
2023-02-19T08:26:21.651Z,96.82
2023-02-19T08:27:24.438Z,96.98
2023-02-19T08:28:24.489Z,97.08
2023-02-19T08:29:23.426Z,96.88
2023-02-19T08:30:21.987Z,96.67
2023-02-19T08:31:24.383Z,95.65
2023-02-19T08:32:21.899Z,95.24
2023-02-19T08:33:21.855Z,95.65
2023-02-19T08:34:21.894Z,95.65
2023-02-19T08:35:21.537Z,95.65
2023-02-19T08:36:21.913Z,95.75
2023-02-19T08:37:23.401Z,95.86
2023-02-19T08:38:22.350Z,95.34
2023-02-19T08:39:21.511Z,95.65
2023-02-19T08:40:21.511Z,95.75
2023-02-19T08:41:21.788Z,96.12
2023-02-19T08:42:21.448Z,94.58
2023-02-19T08:43:22.389Z,94.58
2023-02-19T08:44:23.326Z,94.17
2023-02-19T08:45:24.166Z,94.48
2023-02-19T08:46:21.535Z,94.68
2023-02-19T08:47:21.424Z,93.76
2023-02-19T08:48:21.707Z,94.02
2023-02-19T08:49:24.168Z,93.92
2023-02-19T08:50:21.356Z,93.82
2023-02-19T08:51:21.351Z,93.82
2023-02-19T08:52:23.198Z,94.02
2023-02-19T08:53:21.356Z,94.12
2023-02-19T08:54:21.595Z,94.18
2023-02-19T08:55:21.338Z,93.77
2023-02-19T08:56:23.131Z,93.67
2023-02-19T08:57:21.637Z,93.06
2023-02-19T08:58:21.617Z,93.37
2023-02-19T08:59:21.269Z,93.06
2023-02-19T09:00:28.776Z,92.96
2023-02-19T09:01:28.329Z,92.96
2023-02-19T09:02:28.282Z,93.06
2023-02-19T09:03:28.230Z,92.96
2023-02-19T09:04:28.249Z,92.75
2023-02-19T09:05:28.769Z,92.55
2023-02-19T09:06:21.167Z,92.65
2023-02-19T09:07:21.158Z,92.44
2023-02-19T09:08:21.169Z,92.03
2023-02-19T09:09:21.152Z,92.34
2023-02-19T09:10:21.147Z,92.50
2023-02-19T09:11:21.136Z,92.40
2023-02-19T09:12:21.104Z,92.19
2023-02-19T09:13:21.088Z,91.99
2023-02-19T09:14:21.098Z,92.30
2023-02-19T09:15:21.088Z,91.58
2023-02-19T09:16:21.061Z,91.42
2023-02-19T09:17:21.057Z,91.78
2023-02-19T09:18:21.029Z,91.58
2023-02-19T09:19:21.041Z,91.58
2023-02-19T09:20:21.021Z,91.78
2023-02-19T09:21:21.004Z,90.97
2023-02-19T09:22:21.056Z,91.07
2023-02-19T09:23:20.995Z,90.86
2023-02-19T09:24:20.984Z,90.45
2023-02-19T09:25:20.963Z,90.77
2023-02-19T09:26:20.945Z,90.77
2023-02-19T09:27:20.934Z,91.13
2023-02-19T09:28:20.921Z,91.44
2023-02-19T09:29:21.244Z,90.31
2023-02-19T09:30:20.912Z,89.90
2023-02-19T09:31:20.936Z,90.82
2023-02-19T09:32:20.878Z,90.21
2023-02-19T09:33:20.878Z,89.70
2023-02-19T09:34:20.858Z,89.18
2023-02-19T09:35:20.878Z,89.50
2023-02-19T09:36:20.832Z,89.29
2023-02-19T09:37:20.817Z,89.29
2023-02-19T09:38:20.832Z,88.88
2023-02-19T09:39:20.808Z,89.18
2023-02-19T09:40:22.505Z,89.76
2023-02-19T09:41:20.758Z,88.53
2023-02-19T09:42:20.758Z,88.84
2023-02-19T09:43:20.784Z,88.90
2023-02-19T09:44:20.749Z,88.39
2023-02-19T09:45:20.720Z,88.12
2023-02-19T09:46:20.740Z,88.33
2023-02-19T09:47:20.714Z,87.92
2023-02-19T09:48:21.001Z,88.33
2023-02-19T09:49:20.669Z,87.61
2023-02-19T09:50:20.695Z,87.61
2023-02-19T09:51:20.650Z,87.35
2023-02-19T09:52:20.921Z,88.26
2023-02-19T09:53:20.649Z,88.17
2023-02-19T09:54:20.664Z,88.06
2023-02-19T09:55:20.623Z,87.76
2023-02-19T09:56:20.665Z,87.96
2023-02-19T09:57:20.612Z,88.57
2023-02-19T09:58:20.606Z,87.85
2023-02-19T09:59:20.634Z,88.57
2023-02-19T10:00:20.566Z,88.47
2023-02-19T10:01:20.557Z,87.96
2023-02-19T10:02:20.566Z,88.26
2023-02-19T10:03:20.628Z,87.85
2023-02-19T10:04:20.517Z,88.06
2023-02-19T10:05:20.542Z,87.55
2023-02-19T10:06:20.508Z,87.55
2023-02-19T10:07:20.472Z,87.35
2023-02-19T10:08:20.463Z,87.76
2023-02-19T10:09:20.491Z,88.23
2023-02-19T10:10:21.307Z,87.55
2023-02-19T10:11:20.423Z,88.37
2023-02-19T10:12:20.409Z,88.78
2023-02-19T10:13:25.426Z,89.09
2023-02-19T10:14:20.410Z,88.68
2023-02-19T10:15:20.378Z,88.68
2023-02-19T10:16:20.414Z,88.57
2023-02-19T10:17:20.353Z,88.68
2023-02-19T10:18:20.385Z,88.78
2023-02-19T10:19:20.390Z,88.26
2023-02-19T10:20:20.347Z,88.26
2023-02-19T10:21:20.329Z,88.98
2023-02-19T10:22:20.333Z,88.64
2023-02-19T10:23:20.594Z,88.64
2023-02-19T10:24:27.321Z,88.12
2023-02-19T10:25:27.274Z,87.92
2023-02-19T10:26:20.284Z,87.71
2023-02-19T10:27:20.227Z,88.17
2023-02-19T10:28:30.304Z,89.09
2023-02-19T10:29:20.211Z,89.29
2023-02-19T10:30:20.217Z,89.80
2023-02-19T10:31:20.930Z,90.00
2023-02-19T10:32:20.214Z,88.37
2023-02-19T10:33:20.187Z,88.71
2023-02-19T10:34:22.485Z,88.71
2023-02-19T10:35:20.162Z,88.92
2023-02-19T10:36:20.125Z,89.33
2023-02-19T10:37:20.121Z,89.53
2023-02-19T10:38:27.164Z,89.23
2023-02-19T10:39:20.077Z,89.39
2023-02-19T10:40:27.744Z,89.50
2023-02-19T10:41:20.063Z,88.47
2023-02-19T10:42:20.053Z,88.26
2023-02-19T10:43:20.054Z,88.68
2023-02-19T10:44:20.033Z,89.18
2023-02-19T10:45:20.031Z,88.78
2023-02-19T10:46:20.062Z,88.57
2023-02-19T10:47:20.026Z,89.29
2023-02-19T10:48:20.028Z,89.64
2023-02-19T10:49:19.986Z,91.38
2023-02-19T10:50:19.968Z,90.81
2023-02-19T10:51:19.965Z,91.31
2023-02-19T10:52:19.966Z,91.01
2023-02-19T10:53:19.950Z,91.52
2023-02-19T10:54:19.983Z,91.73
2023-02-19T10:55:20.198Z,91.31
2023-02-19T10:56:19.886Z,91.83
2023-02-19T10:57:19.878Z,92.03
2023-02-19T10:58:19.866Z,92.85
2023-02-19T10:59:19.875Z,93.62
2023-02-19T11:00:19.847Z,94.12
2023-02-19T11:01:21.956Z,93.92
2023-02-19T11:02:19.843Z,94.64
2023-02-19T11:03:19.859Z,94.95
2023-02-19T11:04:24.988Z,95.05
2023-02-19T11:05:19.795Z,94.64
2023-02-19T11:06:19.859Z,94.43
2023-02-19T11:07:19.797Z,94.54
2023-02-19T11:08:19.753Z,93.92
2023-02-19T11:09:19.763Z,93.47
2023-02-19T11:10:19.775Z,92.65
2023-02-19T11:11:19.719Z,92.24
2023-02-19T11:12:24.479Z,92.19
2023-02-19T11:13:19.710Z,91.99
2023-02-19T11:14:19.710Z,91.78
2023-02-19T11:15:20.015Z,92.05
2023-02-19T11:16:19.700Z,90.86
2023-02-19T11:17:19.647Z,90.56
2023-02-19T11:18:19.656Z,90.62
2023-02-19T11:19:19.659Z,91.17
2023-02-19T11:20:19.633Z,92.60
2023-02-19T11:21:19.599Z,92.71
2023-02-19T11:22:19.603Z,93.28
2023-02-19T11:23:19.619Z,93.18
2023-02-19T11:24:19.579Z,92.05
2023-02-19T11:25:19.581Z,92.25
2023-02-19T11:26:19.551Z,92.05
2023-02-19T11:27:19.534Z,91.74
2023-02-19T11:28:19.530Z,92.36
2023-02-19T11:29:19.527Z,91.50
2023-02-19T11:30:19.517Z,91.70
2023-02-19T11:31:40.556Z,90.47
2023-02-19T11:32:19.529Z,91.50
2023-02-19T11:33:19.460Z,89.97
2023-02-19T11:34:19.480Z,90.06
2023-02-19T11:35:19.448Z,89.35
2023-02-19T11:36:19.430Z,89.97
2023-02-19T11:37:19.426Z,89.76
2023-02-19T11:38:19.423Z,89.25
2023-02-19T11:39:21.234Z,89.25
2023-02-19T11:40:21.423Z,89.04
2023-02-19T11:41:19.429Z,89.35
2023-02-19T11:42:19.395Z,89.35
2023-02-19T11:43:19.370Z,89.45
2023-02-19T11:44:19.758Z,89.61
2023-02-19T11:45:19.349Z,89.11
2023-02-19T11:46:22.404Z,89.00
2023-02-19T11:47:19.307Z,89.00
2023-02-19T11:48:19.280Z,88.94
2023-02-19T11:49:21.407Z,89.80
2023-02-19T11:50:19.639Z,90.31
2023-02-19T11:51:33.419Z,90.00
2023-02-19T11:52:19.242Z,90.21
2023-02-19T11:53:19.238Z,89.80
2023-02-19T11:54:19.240Z,89.97
2023-02-19T11:55:21.099Z,90.27
2023-02-19T11:56:19.188Z,89.41
2023-02-19T11:57:19.539Z,88.90
2023-02-19T11:58:19.168Z,88.64
2023-02-19T11:59:19.178Z,88.43
2023-02-19T12:00:19.149Z,88.74
2023-02-19T12:01:19.148Z,88.39
2023-02-19T12:02:19.183Z,88.59
2023-02-19T12:03:19.118Z,88.96
2023-02-19T12:04:19.272Z,87.88
2023-02-19T12:05:19.128Z,88.45
2023-02-19T12:06:19.093Z,87.63
2023-02-19T12:07:19.069Z,87.47
2023-02-19T12:08:19.065Z,87.88
2023-02-19T12:09:19.144Z,88.18
2023-02-19T12:10:19.042Z,88.49
2023-02-19T12:11:19.037Z,87.77
2023-02-19T12:12:26.537Z,87.77
2023-02-19T12:13:26.051Z,87.26
2023-02-19T12:14:31.045Z,87.98
2023-02-19T12:15:29.006Z,88.08
2023-02-19T12:16:27.205Z,88.08
2023-02-19T12:17:25.988Z,88.49
2023-02-19T12:18:18.930Z,87.88
2023-02-19T12:19:18.941Z,88.29
2023-02-19T12:20:18.912Z,87.51
2023-02-19T12:21:18.900Z,88.64
2023-02-19T12:22:18.893Z,88.94
2023-02-19T12:23:18.901Z,88.98
2023-02-19T12:24:18.908Z,90.00
2023-02-19T12:25:18.905Z,90.41
2023-02-19T12:26:18.860Z,90.31
2023-02-19T12:27:18.902Z,89.90
2023-02-19T12:28:18.820Z,90.86
2023-02-19T12:29:18.832Z,91.07
2023-02-19T12:30:18.928Z,90.56
2023-02-19T12:31:19.004Z,90.72
2023-02-19T12:32:18.770Z,89.59
2023-02-19T12:33:18.832Z,89.70
2023-02-19T12:34:18.775Z,89.59
2023-02-19T12:35:18.899Z,89.50
2023-02-19T12:36:19.148Z,89.18
2023-02-19T12:37:18.843Z,89.18
2023-02-19T12:38:18.782Z,89.39
2023-02-19T12:39:18.771Z,89.39
2023-02-19T12:40:19.653Z,89.90
2023-02-19T12:41:18.743Z,89.97
2023-02-19T12:42:18.750Z,90.17
2023-02-19T12:43:18.677Z,90.17
2023-02-19T12:44:18.653Z,90.41
2023-02-19T12:45:21.563Z,91.33
2023-02-19T12:46:21.448Z,92.46
2023-02-19T12:47:18.613Z,92.81
2023-02-19T12:48:18.606Z,93.77
2023-02-19T12:49:18.604Z,93.82
2023-02-19T12:50:18.622Z,94.43
2023-02-19T12:51:18.602Z,95.25
2023-02-19T12:52:18.855Z,95.05